sensor_id;sensor_type;location;lat;lon;timestamp;P1;durP1;ratioP1;P2;durP2;ratioP2
16975;SDS011;8604;48.148;-1.786;2023-02-15T00:00:15;50.43;;;38.40;;
16975;SDS011;8604;48.148;-1.786;2023-02-15T00:02:46;47.07;;;36.93;;
16975;SDS011;8604;48.148;-1.786;2023-02-15T00:05:16;51.23;;;38.83;;
16975;SDS011;8604;48.148;-1.786;2023-02-15T00:07:48;50.27;;;37.83;;
16975;SDS011;8604;48.148;-1.786;2023-02-15T00:10:17;50.03;;;37.53;;
16975;SDS011;8604;48.148;-1.786;2023-02-15T00:12:45;51.30;;;38.10;;
16975;SDS011;8604;48.148;-1.786;2023-02-15T00:15:14;53.07;;;39.13;;
16975;SDS011;8604;48.148;-1.786;2023-02-15T00:17:42;51.80;;;38.17;;
16975;SDS011;8604;48.148;-1.786;2023-02-15T00:20:11;51.73;;;38.63;;
16975;SDS011;8604;48.148;-1.786;2023-02-15T00:22:39;52.00;;;38.13;;
16975;SDS011;8604;48.148;-1.786;2023-02-15T00:25:09;50.90;;;38.03;;
16975;SDS011;8604;48.148;-1.786;2023-02-15T00:27:38;55.13;;;39.27;;
16975;SDS011;8604;48.148;-1.786;2023-02-15T00:30:06;54.70;;;39.20;;
16975;SDS011;8604;48.148;-1.786;2023-02-15T00:32:35;55.47;;;40.80;;
16975;SDS011;8604;48.148;-1.786;2023-02-15T00:35:04;55.77;;;39.57;;
16975;SDS011;8604;48.148;-1.786;2023-02-15T00:37:33;51.13;;;37.27;;
16975;SDS011;8604;48.148;-1.786;2023-02-15T00:40:02;51.73;;;37.90;;
16975;SDS011;8604;48.148;-1.786;2023-02-15T00:42:33;50.40;;;36.90;;
16975;SDS011;8604;48.148;-1.786;2023-02-15T00:45:04;50.27;;;37.47;;
16975;SDS011;8604;48.148;-1.786;2023-02-15T00:47:33;54.33;;;40.33;;
16975;SDS011;8604;48.148;-1.786;2023-02-15T00:50:01;52.63;;;38.50;;
16975;SDS011;8604;48.148;-1.786;2023-02-15T00:52:30;51.30;;;37.10;;
16975;SDS011;8604;48.148;-1.786;2023-02-15T00:54:58;49.20;;;36.43;;
16975;SDS011;8604;48.148;-1.786;2023-02-15T00:57:27;49.30;;;36.17;;
16975;SDS011;8604;48.148;-1.786;2023-02-15T00:59:56;49.47;;;37.27;;
16975;SDS011;8604;48.148;-1.786;2023-02-15T01:02:25;47.83;;;34.80;;
16975;SDS011;8604;48.148;-1.786;2023-02-15T01:04:53;49.60;;;36.53;;
16975;SDS011;8604;48.148;-1.786;2023-02-15T01:07:22;48.00;;;35.43;;
16975;SDS011;8604;48.148;-1.786;2023-02-15T01:09:51;48.37;;;35.40;;
16975;SDS011;8604;48.148;-1.786;2023-02-15T01:12:25;45.83;;;34.37;;
16975;SDS011;8604;48.148;-1.786;2023-02-15T01:14:54;44.00;;;32.93;;
16975;SDS011;8604;48.148;-1.786;2023-02-15T01:17:24;46.83;;;33.10;;
16975;SDS011;8604;48.148;-1.786;2023-02-15T01:19:52;46.07;;;33.67;;
16975;SDS011;8604;48.148;-1.786;2023-02-15T01:22:24;44.20;;;33.03;;
16975;SDS011;8604;48.148;-1.786;2023-02-15T01:24:53;42.30;;;31.73;;
16975;SDS011;8604;48.148;-1.786;2023-02-15T01:27:22;41.60;;;29.83;;
16975;SDS011;8604;48.148;-1.786;2023-02-15T01:29:50;41.57;;;31.27;;
16975;SDS011;8604;48.148;-1.786;2023-02-15T01:32:21;43.30;;;31.83;;
16975;SDS011;8604;48.148;-1.786;2023-02-15T01:34:52;46.23;;;32.63;;
16975;SDS011;8604;48.148;-1.786;2023-02-15T01:37:25;43.63;;;32.30;;
16975;SDS011;8604;48.148;-1.786;2023-02-15T01:39:54;42.60;;;32.27;;
16975;SDS011;8604;48.148;-1.786;2023-02-15T01:42:23;39.60;;;29.43;;
16975;SDS011;8604;48.148;-1.786;2023-02-15T01:44:52;38.97;;;28.90;;
16975;SDS011;8604;48.148;-1.786;2023-02-15T01:47:26;39.40;;;27.43;;
16975;SDS011;8604;48.148;-1.786;2023-02-15T01:50:06;35.47;;;27.33;;
16975;SDS011;8604;48.148;-1.786;2023-02-15T01:52:38;35.27;;;24.90;;
16975;SDS011;8604;48.148;-1.786;2023-02-15T01:55:12;35.33;;;26.00;;
16975;SDS011;8604;48.148;-1.786;2023-02-15T01:57:42;37.40;;;27.00;;
16975;SDS011;8604;48.148;-1.786;2023-02-15T02:00:13;34.47;;;25.43;;
16975;SDS011;8604;48.148;-1.786;2023-02-15T02:02:46;35.13;;;26.33;;
16975;SDS011;8604;48.148;-1.786;2023-02-15T02:05:19;35.30;;;25.90;;
16975;SDS011;8604;48.148;-1.786;2023-02-15T02:07:48;36.03;;;25.90;;
16975;SDS011;8604;48.148;-1.786;2023-02-15T02:10:21;36.63;;;26.17;;
16975;SDS011;8604;48.148;-1.786;2023-02-15T02:12:57;35.10;;;26.17;;
16975;SDS011;8604;48.148;-1.786;2023-02-15T02:15:33;32.67;;;24.67;;
16975;SDS011;8604;48.148;-1.786;2023-02-15T02:18:12;34.73;;;24.27;;
16975;SDS011;8604;48.148;-1.786;2023-02-15T02:20:59;31.07;;;22.80;;
16975;SDS011;8604;48.148;-1.786;2023-02-15T02:23:56;35.00;;;24.73;;
16975;SDS011;8604;48.148;-1.786;2023-02-15T02:36:06;32.00;;;23.73;;
16975;SDS011;8604;48.148;-1.786;2023-02-15T02:38:46;32.57;;;23.73;;
16975;SDS011;8604;48.148;-1.786;2023-02-15T02:41:24;33.00;;;23.33;;
16975;SDS011;8604;48.148;-1.786;2023-02-15T02:44:02;30.87;;;22.57;;
16975;SDS011;8604;48.148;-1.786;2023-02-15T02:46:37;32.60;;;23.33;;
16975;SDS011;8604;48.148;-1.786;2023-02-15T02:49:28;31.70;;;22.90;;
16975;SDS011;8604;48.148;-1.786;2023-02-15T02:51:59;32.13;;;23.80;;
16975;SDS011;8604;48.148;-1.786;2023-02-15T02:54:28;32.53;;;22.10;;
16975;SDS011;8604;48.148;-1.786;2023-02-15T02:56:58;31.90;;;23.73;;
16975;SDS011;8604;48.148;-1.786;2023-02-15T02:59:30;31.67;;;23.47;;
16975;SDS011;8604;48.148;-1.786;2023-02-15T03:02:02;31.37;;;24.30;;
16975;SDS011;8604;48.148;-1.786;2023-02-15T03:04:41;34.17;;;24.20;;
16975;SDS011;8604;48.148;-1.786;2023-02-15T03:07:14;31.60;;;24.23;;
16975;SDS011;8604;48.148;-1.786;2023-02-15T03:09:54;32.60;;;25.33;;
16975;SDS011;8604;48.148;-1.786;2023-02-15T03:12:28;32.27;;;24.77;;
16975;SDS011;8604;48.148;-1.786;2023-02-15T03:15:03;35.70;;;25.20;;
16975;SDS011;8604;48.148;-1.786;2023-02-15T03:17:36;33.97;;;24.90;;
16975;SDS011;8604;48.148;-1.786;2023-02-15T03:20:12;33.00;;;23.33;;
16975;SDS011;8604;48.148;-1.786;2023-02-15T03:22:45;32.00;;;23.77;;
16975;SDS011;8604;48.148;-1.786;2023-02-15T03:25:19;34.50;;;24.00;;
16975;SDS011;8604;48.148;-1.786;2023-02-15T03:27:51;34.63;;;24.87;;
16975;SDS011;8604;48.148;-1.786;2023-02-15T03:30:23;33.13;;;24.83;;
16975;SDS011;8604;48.148;-1.786;2023-02-15T03:32:55;30.70;;;22.70;;
16975;SDS011;8604;48.148;-1.786;2023-02-15T03:35:30;33.73;;;23.80;;
16975;SDS011;8604;48.148;-1.786;2023-02-15T03:38:03;32.70;;;25.30;;
16975;SDS011;8604;48.148;-1.786;2023-02-15T03:40:36;31.17;;;23.13;;
16975;SDS011;8604;48.148;-1.786;2023-02-15T03:43:27;31.83;;;23.00;;
16975;SDS011;8604;48.148;-1.786;2023-02-15T03:46:05;33.73;;;24.30;;
16975;SDS011;8604;48.148;-1.786;2023-02-15T03:48:40;33.20;;;24.13;;
16975;SDS011;8604;48.148;-1.786;2023-02-15T03:51:16;33.90;;;25.20;;
16975;SDS011;8604;48.148;-1.786;2023-02-15T03:54:04;33.40;;;23.03;;
16975;SDS011;8604;48.148;-1.786;2023-02-15T03:56:36;33.97;;;24.30;;
16975;SDS011;8604;48.148;-1.786;2023-02-15T03:59:08;33.00;;;24.03;;
16975;SDS011;8604;48.148;-1.786;2023-02-15T04:01:55;31.30;;;23.27;;
16975;SDS011;8604;48.148;-1.786;2023-02-15T04:04:33;32.93;;;23.33;;
16975;SDS011;8604;48.148;-1.786;2023-02-15T04:07:05;31.67;;;23.33;;
16975;SDS011;8604;48.148;-1.786;2023-02-15T04:09:35;31.17;;;23.57;;
16975;SDS011;8604;48.148;-1.786;2023-02-15T04:12:21;32.43;;;23.40;;
16975;SDS011;8604;48.148;-1.786;2023-02-15T04:14:49;33.33;;;23.80;;
16975;SDS011;8604;48.148;-1.786;2023-02-15T04:17:35;31.70;;;23.17;;
16975;SDS011;8604;48.148;-1.786;2023-02-15T04:20:04;30.90;;;23.53;;
16975;SDS011;8604;48.148;-1.786;2023-02-15T04:22:52;29.47;;;22.23;;
16975;SDS011;8604;48.148;-1.786;2023-02-15T04:25:39;29.97;;;22.27;;
16975;SDS011;8604;48.148;-1.786;2023-02-15T04:28:07;29.97;;;22.07;;
16975;SDS011;8604;48.148;-1.786;2023-02-15T04:30:36;29.30;;;22.40;;
16975;SDS011;8604;48.148;-1.786;2023-02-15T04:33:06;29.80;;;22.10;;
16975;SDS011;8604;48.148;-1.786;2023-02-15T04:35:35;30.47;;;22.40;;
16975;SDS011;8604;48.148;-1.786;2023-02-15T04:38:05;30.33;;;21.37;;
16975;SDS011;8604;48.148;-1.786;2023-02-15T04:40:33;31.87;;;24.10;;
16975;SDS011;8604;48.148;-1.786;2023-02-15T04:43:02;27.97;;;21.53;;
16975;SDS011;8604;48.148;-1.786;2023-02-15T04:45:34;33.43;;;22.67;;
16975;SDS011;8604;48.148;-1.786;2023-02-15T04:48:06;30.80;;;22.20;;
16975;SDS011;8604;48.148;-1.786;2023-02-15T04:50:35;31.27;;;22.70;;
16975;SDS011;8604;48.148;-1.786;2023-02-15T04:53:10;30.17;;;22.83;;
16975;SDS011;8604;48.148;-1.786;2023-02-15T04:55:39;31.43;;;22.90;;
16975;SDS011;8604;48.148;-1.786;2023-02-15T04:58:08;29.00;;;21.67;;
16975;SDS011;8604;48.148;-1.786;2023-02-15T05:00:37;32.57;;;23.27;;
16975;SDS011;8604;48.148;-1.786;2023-02-15T05:03:05;29.10;;;22.20;;
16975;SDS011;8604;48.148;-1.786;2023-02-15T05:05:35;31.00;;;22.50;;
16975;SDS011;8604;48.148;-1.786;2023-02-15T05:08:07;30.83;;;23.20;;
16975;SDS011;8604;48.148;-1.786;2023-02-15T05:10:37;33.13;;;22.43;;
16975;SDS011;8604;48.148;-1.786;2023-02-15T05:13:06;32.30;;;24.97;;
16975;SDS011;8604;48.148;-1.786;2023-02-15T05:15:37;35.17;;;25.87;;
16975;SDS011;8604;48.148;-1.786;2023-02-15T05:18:06;33.27;;;24.97;;
16975;SDS011;8604;48.148;-1.786;2023-02-15T05:20:35;33.70;;;23.10;;
16975;SDS011;8604;48.148;-1.786;2023-02-15T05:23:07;31.60;;;22.97;;
16975;SDS011;8604;48.148;-1.786;2023-02-15T05:25:37;30.00;;;22.70;;
16975;SDS011;8604;48.148;-1.786;2023-02-15T05:28:23;32.23;;;23.50;;
16975;SDS011;8604;48.148;-1.786;2023-02-15T05:30:58;32.60;;;24.10;;
16975;SDS011;8604;48.148;-1.786;2023-02-15T05:33:31;34.40;;;25.10;;
16975;SDS011;8604;48.148;-1.786;2023-02-15T05:36:02;32.73;;;25.27;;
16975;SDS011;8604;48.148;-1.786;2023-02-15T05:38:32;35.83;;;25.63;;
16975;SDS011;8604;48.148;-1.786;2023-02-15T05:41:04;35.00;;;26.07;;
16975;SDS011;8604;48.148;-1.786;2023-02-15T05:43:34;33.90;;;24.17;;
16975;SDS011;8604;48.148;-1.786;2023-02-15T05:46:03;31.37;;;22.60;;
16975;SDS011;8604;48.148;-1.786;2023-02-15T05:48:32;28.63;;;22.03;;
16975;SDS011;8604;48.148;-1.786;2023-02-15T05:51:02;30.70;;;22.10;;
16975;SDS011;8604;48.148;-1.786;2023-02-15T05:53:36;30.73;;;22.33;;
16975;SDS011;8604;48.148;-1.786;2023-02-15T05:56:11;30.27;;;21.87;;
16975;SDS011;8604;48.148;-1.786;2023-02-15T05:58:40;31.87;;;22.63;;
16975;SDS011;8604;48.148;-1.786;2023-02-15T06:01:09;31.17;;;22.17;;
16975;SDS011;8604;48.148;-1.786;2023-02-15T06:03:39;31.07;;;22.00;;
16975;SDS011;8604;48.148;-1.786;2023-02-15T06:06:08;30.43;;;21.30;;
16975;SDS011;8604;48.148;-1.786;2023-02-15T06:08:37;29.73;;;22.27;;
16975;SDS011;8604;48.148;-1.786;2023-02-15T06:11:07;30.80;;;21.73;;
16975;SDS011;8604;48.148;-1.786;2023-02-15T06:13:36;27.80;;;21.03;;
16975;SDS011;8604;48.148;-1.786;2023-02-15T06:16:04;30.13;;;21.87;;
16975;SDS011;8604;48.148;-1.786;2023-02-15T06:18:36;30.47;;;22.10;;
16975;SDS011;8604;48.148;-1.786;2023-02-15T06:21:07;32.03;;;21.93;;
16975;SDS011;8604;48.148;-1.786;2023-02-15T06:23:36;31.27;;;20.90;;
16975;SDS011;8604;48.148;-1.786;2023-02-15T06:26:05;28.87;;;21.07;;
16975;SDS011;8604;48.148;-1.786;2023-02-15T06:28:35;30.57;;;20.77;;
16975;SDS011;8604;48.148;-1.786;2023-02-15T06:31:07;30.50;;;21.50;;
16975;SDS011;8604;48.148;-1.786;2023-02-15T06:33:36;28.67;;;21.40;;
16975;SDS011;8604;48.148;-1.786;2023-02-15T06:36:05;32.10;;;22.23;;
16975;SDS011;8604;48.148;-1.786;2023-02-15T06:38:34;28.60;;;22.47;;
16975;SDS011;8604;48.148;-1.786;2023-02-15T06:41:02;27.83;;;21.73;;
16975;SDS011;8604;48.148;-1.786;2023-02-15T06:43:31;29.80;;;21.80;;
16975;SDS011;8604;48.148;-1.786;2023-02-15T06:55:01;28.13;;;19.87;;
16975;SDS011;8604;48.148;-1.786;2023-02-15T06:58:10;27.70;;;20.57;;
16975;SDS011;8604;48.148;-1.786;2023-02-15T07:05:39;26.83;;;19.50;;
16975;SDS011;8604;48.148;-1.786;2023-02-15T07:51:32;46.00;;;33.27;;
16975;SDS011;8604;48.148;-1.786;2023-02-15T07:55:09;50.73;;;36.03;;
16975;SDS011;8604;48.148;-1.786;2023-02-15T07:58:16;44.67;;;34.80;;
16975;SDS011;8604;48.148;-1.786;2023-02-15T08:03:02;37.77;;;28.93;;
16975;SDS011;8604;48.148;-1.786;2023-02-15T08:05:28;34.40;;;25.27;;
16975;SDS011;8604;48.148;-1.786;2023-02-15T14:10:29;18.33;;;15.47;;
16975;SDS011;8604;48.148;-1.786;2023-02-15T14:13:13;17.33;;;15.40;;
16975;SDS011;8604;48.148;-1.786;2023-02-15T14:16:06;18.40;;;15.30;;
16975;SDS011;8604;48.148;-1.786;2023-02-15T14:18:42;20.37;;;15.20;;
16975;SDS011;8604;48.148;-1.786;2023-02-15T14:21:17;18.60;;;15.67;;
16975;SDS011;8604;48.148;-1.786;2023-02-15T14:23:52;18.67;;;15.37;;
16975;SDS011;8604;48.148;-1.786;2023-02-15T14:26:38;19.07;;;15.03;;
16975;SDS011;8604;48.148;-1.786;2023-02-15T14:29:23;24.33;;;15.97;;
16975;SDS011;8604;48.148;-1.786;2023-02-15T14:32:23;20.90;;;15.77;;
16975;SDS011;8604;48.148;-1.786;2023-02-15T14:35:01;20.13;;;14.33;;
16975;SDS011;8604;48.148;-1.786;2023-02-15T14:38:56;19.77;;;14.50;;
16975;SDS011;8604;48.148;-1.786;2023-02-15T14:42:20;53.63;;;18.37;;
16975;SDS011;8604;48.148;-1.786;2023-02-15T14:45:16;18.67;;;14.07;;
16975;SDS011;8604;48.148;-1.786;2023-02-15T14:48:41;15.63;;;13.93;;
16975;SDS011;8604;48.148;-1.786;2023-02-15T14:55:24;16.27;;;13.67;;
16975;SDS011;8604;48.148;-1.786;2023-02-15T14:58:09;17.43;;;14.03;;
16975;SDS011;8604;48.148;-1.786;2023-02-15T15:00:40;20.27;;;14.23;;
16975;SDS011;8604;48.148;-1.786;2023-02-15T15:03:19;16.83;;;13.90;;
16975;SDS011;8604;48.148;-1.786;2023-02-15T15:05:52;18.73;;;13.60;;
16975;SDS011;8604;48.148;-1.786;2023-02-15T15:08:34;19.27;;;13.90;;
16975;SDS011;8604;48.148;-1.786;2023-02-15T15:17:08;17.10;;;14.47;;
16975;SDS011;8604;48.148;-1.786;2023-02-15T18:48:39;18.53;;;15.10;;
16975;SDS011;8604;48.148;-1.786;2023-02-15T18:51:15;21.55;;;17.80;;
16975;SDS011;8604;48.148;-1.786;2023-02-15T18:53:49;21.53;;;15.97;;
16975;SDS011;8604;48.148;-1.786;2023-02-15T18:56:20;18.80;;;15.20;;
16975;SDS011;8604;48.148;-1.786;2023-02-15T18:58:50;20.43;;;15.83;;
16975;SDS011;8604;48.148;-1.786;2023-02-15T19:01:23;22.40;;;18.13;;
16975;SDS011;8604;48.148;-1.786;2023-02-15T19:03:52;21.87;;;16.67;;
16975;SDS011;8604;48.148;-1.786;2023-02-15T19:06:20;20.17;;;15.67;;
16975;SDS011;8604;48.148;-1.786;2023-02-15T19:08:50;22.00;;;15.20;;
16975;SDS011;8604;48.148;-1.786;2023-02-15T19:11:20;19.20;;;14.33;;
16975;SDS011;8604;48.148;-1.786;2023-02-15T19:13:52;20.93;;;14.63;;
16975;SDS011;8604;48.148;-1.786;2023-02-15T19:16:32;18.50;;;15.17;;
16975;SDS011;8604;48.148;-1.786;2023-02-15T19:19:05;21.13;;;15.13;;
16975;SDS011;8604;48.148;-1.786;2023-02-15T19:37:19;20.17;;;14.40;;
16975;SDS011;8604;48.148;-1.786;2023-02-15T19:39:51;18.60;;;14.40;;
16975;SDS011;8604;48.148;-1.786;2023-02-15T19:42:22;18.77;;;14.53;;
16975;SDS011;8604;48.148;-1.786;2023-02-15T19:44:51;23.27;;;16.20;;
16975;SDS011;8604;48.148;-1.786;2023-02-15T19:47:32;20.23;;;14.97;;
16975;SDS011;8604;48.148;-1.786;2023-02-15T19:50:24;22.33;;;14.83;;
16975;SDS011;8604;48.148;-1.786;2023-02-15T19:52:56;22.17;;;15.40;;
16975;SDS011;8604;48.148;-1.786;2023-02-15T20:01:30;23.27;;;15.80;;
16975;SDS011;8604;48.148;-1.786;2023-02-15T20:04:14;23.57;;;15.97;;
16975;SDS011;8604;48.148;-1.786;2023-02-15T20:10:20;25.77;;;16.90;;
16975;SDS011;8604;48.148;-1.786;2023-02-15T20:12:50;22.70;;;15.87;;
16975;SDS011;8604;48.148;-1.786;2023-02-15T20:15:20;22.80;;;15.00;;
16975;SDS011;8604;48.148;-1.786;2023-02-15T20:17:50;21.60;;;14.87;;
16975;SDS011;8604;48.148;-1.786;2023-02-15T20:20:20;23.77;;;15.63;;
16975;SDS011;8604;48.148;-1.786;2023-02-15T20:22:50;20.50;;;15.47;;
16975;SDS011;8604;48.148;-1.786;2023-02-15T20:25:28;25.43;;;15.33;;
16975;SDS011;8604;48.148;-1.786;2023-02-15T20:28:01;20.90;;;15.03;;
16975;SDS011;8604;48.148;-1.786;2023-02-15T20:31:15;21.30;;;14.50;;
16975;SDS011;8604;48.148;-1.786;2023-02-15T20:34:12;18.83;;;14.80;;
16975;SDS011;8604;48.148;-1.786;2023-02-15T20:37:30;19.73;;;14.67;;
16975;SDS011;8604;48.148;-1.786;2023-02-15T20:45:34;21.53;;;13.57;;
16975;SDS011;8604;48.148;-1.786;2023-02-15T20:48:13;20.73;;;14.80;;
16975;SDS011;8604;48.148;-1.786;2023-02-15T20:50:44;24.00;;;15.93;;
16975;SDS011;8604;48.148;-1.786;2023-02-15T20:53:16;27.30;;;15.70;;
16975;SDS011;8604;48.148;-1.786;2023-02-15T20:55:50;22.17;;;15.37;;
16975;SDS011;8604;48.148;-1.786;2023-02-15T20:58:42;24.33;;;15.23;;
16975;SDS011;8604;48.148;-1.786;2023-02-15T21:01:17;21.67;;;15.07;;
16975;SDS011;8604;48.148;-1.786;2023-02-15T21:04:38;20.93;;;16.07;;
16975;SDS011;8604;48.148;-1.786;2023-02-15T21:21:27;19.33;;;14.73;;
16975;SDS011;8604;48.148;-1.786;2023-02-15T21:29:00;21.70;;;15.50;;
16975;SDS011;8604;48.148;-1.786;2023-02-15T21:31:45;22.17;;;14.07;;
16975;SDS011;8604;48.148;-1.786;2023-02-15T21:34:26;24.03;;;15.37;;
16975;SDS011;8604;48.148;-1.786;2023-02-15T21:37:01;20.17;;;14.50;;
16975;SDS011;8604;48.148;-1.786;2023-02-15T21:43:19;21.03;;;14.60;;
16975;SDS011;8604;48.148;-1.786;2023-02-15T21:46:27;18.77;;;14.20;;
16975;SDS011;8604;48.148;-1.786;2023-02-15T21:49:20;21.90;;;14.43;;
16975;SDS011;8604;48.148;-1.786;2023-02-15T22:05:30;20.27;;;15.53;;
16975;SDS011;8604;48.148;-1.786;2023-02-15T22:08:08;21.47;;;15.30;;
16975;SDS011;8604;48.148;-1.786;2023-02-15T22:10:43;20.10;;;15.73;;
16975;SDS011;8604;48.148;-1.786;2023-02-15T22:16:32;25.03;;;16.13;;
16975;SDS011;8604;48.148;-1.786;2023-02-15T22:31:36;26.67;;;16.67;;
16975;SDS011;8604;48.148;-1.786;2023-02-15T22:34:08;25.73;;;18.40;;
16975;SDS011;8604;48.148;-1.786;2023-02-15T22:36:49;28.87;;;19.10;;
16975;SDS011;8604;48.148;-1.786;2023-02-15T22:39:18;32.43;;;20.33;;
16975;SDS011;8604;48.148;-1.786;2023-02-15T22:41:47;27.47;;;20.07;;
16975;SDS011;8604;48.148;-1.786;2023-02-15T22:44:18;30.17;;;20.23;;
16975;SDS011;8604;48.148;-1.786;2023-02-15T22:46:51;28.80;;;20.10;;
16975;SDS011;8604;48.148;-1.786;2023-02-15T22:49:20;31.60;;;21.10;;
16975;SDS011;8604;48.148;-1.786;2023-02-15T22:51:49;29.67;;;21.30;;
16975;SDS011;8604;48.148;-1.786;2023-02-15T22:54:18;32.70;;;20.13;;
16975;SDS011;8604;48.148;-1.786;2023-02-15T22:56:48;25.80;;;18.57;;
16975;SDS011;8604;48.148;-1.786;2023-02-15T22:59:18;30.77;;;19.63;;
16975;SDS011;8604;48.148;-1.786;2023-02-15T23:01:51;30.13;;;20.80;;
16975;SDS011;8604;48.148;-1.786;2023-02-15T23:04:20;26.90;;;18.63;;
16975;SDS011;8604;48.148;-1.786;2023-02-15T23:06:51;31.27;;;20.43;;
16975;SDS011;8604;48.148;-1.786;2023-02-15T23:09:20;27.23;;;18.63;;
16975;SDS011;8604;48.148;-1.786;2023-02-15T23:11:50;30.10;;;20.37;;
16975;SDS011;8604;48.148;-1.786;2023-02-15T23:14:22;26.73;;;19.17;;
16975;SDS011;8604;48.148;-1.786;2023-02-15T23:16:54;29.13;;;19.50;;
16975;SDS011;8604;48.148;-1.786;2023-02-15T23:19:23;28.40;;;19.10;;
16975;SDS011;8604;48.148;-1.786;2023-02-15T23:21:51;27.37;;;19.30;;
16975;SDS011;8604;48.148;-1.786;2023-02-15T23:24:21;29.37;;;19.83;;
16975;SDS011;8604;48.148;-1.786;2023-02-15T23:26:52;29.10;;;19.27;;
16975;SDS011;8604;48.148;-1.786;2023-02-15T23:29:41;26.80;;;19.67;;
16975;SDS011;8604;48.148;-1.786;2023-02-15T23:32:12;25.90;;;19.17;;
16975;SDS011;8604;48.148;-1.786;2023-02-15T23:34:41;24.23;;;17.93;;
16975;SDS011;8604;48.148;-1.786;2023-02-15T23:37:10;25.47;;;17.87;;
16975;SDS011;8604;48.148;-1.786;2023-02-15T23:39:40;21.77;;;16.90;;
16975;SDS011;8604;48.148;-1.786;2023-02-15T23:42:27;23.63;;;17.00;;
16975;SDS011;8604;48.148;-1.786;2023-02-15T23:45:00;22.27;;;16.27;;
16975;SDS011;8604;48.148;-1.786;2023-02-15T23:47:34;21.30;;;16.13;;
16975;SDS011;8604;48.148;-1.786;2023-02-15T23:50:22;22.87;;;16.37;;
16975;SDS011;8604;48.148;-1.786;2023-02-15T23:52:52;24.70;;;16.90;;
16975;SDS011;8604;48.148;-1.786;2023-02-15T23:55:22;23.97;;;17.60;;
16975;SDS011;8604;48.148;-1.786;2023-02-15T23:57:55;20.30;;;15.57;;
